Terminal Aerodrome Forecast
Issued by NWS

Home | Current Version | Previous Version | Text Only | Print | Product List | Glossary On
Versions: 1 2 3 4 5 6 7 8 9 10 11 12 13 14 15 16 17 18 19
000
FTUS44 KTSA 190500
TAFRVS
TAF
KRVS 190537Z 1906/2006 02004KT P6SM OVC008
     FM190900 36002KT 4SM BR OVC005
     FM191600 01002KT 6SM BR OVC007
     FM191800 02004KT P6SM OVC012
     FM200000 00000KT P6SM BKN025=

USA.gov is the U.S. government's official web portal to all federal, state and local government web resources and services.